Current Weather

Troy Muni at N Kenneth Campbell Fld

Troy, Alabama (KTOI)

Report from: Monday, August 15, 2022 6:53 PM CDT
Current time: Monday, August 15, 2022 7:16 PM CDT

Nearby weather
Weather history
Weather forecast

Temperature32.2°C (90.0°F)
Heat index35.8°C (96.4°F)
Dew point21.7°C (71.1°F)
Winds Calm
Visibility10 mi. (16.1 km)
Clouds Sky clear
Altimeter29.88 in.Hg (1012 mB)
Relative humidity54 %
Density altitude2,359 ft. (719 m)
Sea-level pressure101.1 kPa (1011 mB, 29.86 in.Hg)
Max temp last 6 hours35.6°C (96.1°F)
Min temp last 6 hours32.2°C (90.0°F)
Remarks Fully automated report
Automated weather observing station with precipitation discriminator
Lightning observed
Distant southeast
Pressure falling, then rising
Flight conditions Visual Meteorological Conditions
Raw dataKTOI 152353Z AUTO 00000KT 10SM CLR 32/22 A2988 RMK AO2 LTG DSNT SE SLP111 T03220217 10356 20322 55004
An error has occurred. This application may no longer respond until reloaded. Reload 🗙